Flight Track Log - Related Links

Times and Time Zones

All times are in EDT time to prevent confusion due to time zone crossing. See the N559LC flight status page for this flight to view local times or setup timezone preferences in your user account.

Time Position Orientation Groundspeed Altitude Reporting Facility
EDT Latitude Longitude Course Direction KTS MPH feet Rate Location/Type
Fri 03:21:42 PM 42.1944 -83.3542 275° West 178 205 1,300  Level Cleveland Center
Fri 03:22:19 PM 42.1733 -83.3850 227° Southwest 197 227 2,800 2,265 Climbing Cleveland Center
Fri 03:23:20 PM 42.1281 -83.4519 228° Southwest 260 299 5,000 2,705 Climbing Cleveland Center
Fri 03:24:21 PM 42.1233 -83.5383 266° West 265 305 8,300 2,826 Climbing Cleveland Center
Fri 03:25:21 PM 42.1622 -83.6206 303° West 276 318 10,700 2,459 Climbing Cleveland Center
Fri 03:25:22 PM 42.1647 -83.6261 301° West 274 315 10,800 2,129 Climbing Cleveland Center
Fri 03:26:23 PM 42.2111 -83.7258 302° West 324 373 12,900 1,073 Climbing Cleveland Center
Fri 03:27:00 PM 42.2684 -84.3869 275° West  Level Estimated
Fri 03:27:25 PM 42.2642 -83.8394 302° West 354 407 13,000  Level Cleveland Center
Fri 03:28:27 PM 42.3197 -83.9589 302° West 373 429 13,900 1,355 Climbing Cleveland Center
Fri 03:29:29 PM 42.3644 -84.0733 298° West 354 407 15,800 2,081 Climbing Cleveland Center
Fri 03:30:31 PM 42.3875 -84.2067 283° West 362 417 18,200 2,352 Climbing Cleveland Center
Fri 03:31:34 PM 42.4144 -84.3683 283° West 369 425 20,700 2,208 Climbing Cleveland Center
Fri 03:32:36 PM 42.4367 -84.5083 282° West 379 436 22,800 1,839 Climbing Cleveland Center
Fri 03:33:38 PM 42.4408 -84.6508 272° West 381 438 24,500 1,839 Climbing Cleveland Center
Fri 03:34:40 PM 42.4444 -84.8131 272° West 387 445 26,600 1,597 Climbing Cleveland Center
Fri 03:35:42 PM 42.4486 -84.9603 272° West 391 450 27,800 1,113 Climbing Cleveland Center
Fri 03:36:44 PM 42.4503 -85.1136 271° West 404 465 28,900 1,210 Climbing Cleveland Center
Fri 03:37:46 PM 42.4542 -85.2700 272° West 414 476 30,300 1,452 Climbing Cleveland Center
Fri 03:38:48 PM 42.4561 -85.4264 271° West 415 478 31,900 1,548 Climbing Cleveland Center
Fri 03:39:50 PM 42.4592 -85.5817 272° West 414 476 33,500 1,790 Climbing Cleveland Center
Fri 03:40:52 PM 42.4600 -85.7328 270° West 403 464 35,600 1,296 Climbing Cleveland Center
Fri 03:41:55 PM 42.4625 -85.9119 271° West 400 460 36,200 1,536 Climbing Cleveland Center
Fri 03:42:57 PM 42.4647 -86.0617 271° West 397 457 38,800 1,839 Climbing Cleveland Center
Fri 03:43:59 PM 42.4542 -86.1933 264° West 358 412 40,000 554 Climbing Cleveland Center
Fri 03:45:07 PM 42.4328 -86.3589 260° West 371 427 40,000  Level Chicago Center
Fri 03:50:49 PM 42.3340 -87.1270 260° West 100 115 40,000  Level FlightAware ADS-B
Fri 03:51:30 PM 42.3220 -87.2240 261° West 382 440 40,000  Level FlightAware ADS-B
Fri 03:52:09 PM 42.3100 -87.3140 260° West 383 441 40,000  Level FlightAware ADS-B
Fri 03:52:39 PM 42.3000 -87.3880 260° West 381 438 40,000  Level FlightAware ADS-B
Fri 03:53:19 PM 42.2870 -87.4820 259° West 385 443 40,000  Level FlightAware ADS-B
Fri 03:53:49 PM 42.2770 -87.5530 259° West 388 447 40,000  Level FlightAware ADS-B
Fri 03:54:34 PM 42.2630 -87.6580 260° West 384 442 40,000  Level FlightAware ADS-B
Fri 03:55:16 PM 42.2490 -87.7420 257° West 390 449 40,000  Level FlightAware ADS-B
Fri 03:55:52 PM 42.2360 -87.8140 256° West 390 449 40,000  Level FlightAware ADS-B
Fri 03:56:28 PM 42.2240 -87.8870 258° West 390 449 40,000  Level FlightAware ADS-B
Fri 03:57:04 PM 42.2110 -87.9600 257° West 390 449 40,000  Level FlightAware ADS-B
Fri 03:57:42 PM 42.1980 -88.0360 257° West 390 449 40,000  Level FlightAware ADS-B
Fri 03:58:16 PM 42.1860 -88.1050 257° West 390 449 40,000  Level FlightAware ADS-B
Fri 03:58:52 PM 42.1740 -88.1780 258° West 390 449 40,000  Level FlightAware ADS-B
Fri 03:59:28 PM 42.1620 -88.2500 257° West 390 449 40,000  Level FlightAware ADS-B
Fri 04:00:05 PM 42.1490 -88.3250 257° West 390 449 40,000  Level FlightAware ADS-B
Fri 04:00:41 PM 42.1360 -88.3970 256° West 390 449 40,000  Level FlightAware ADS-B
Fri 04:01:18 PM 42.1240 -88.4720 258° West 390 449 40,000  Level FlightAware ADS-B
Fri 04:01:54 PM 42.1110 -88.5440 256° West 390 449 40,000  Level FlightAware ADS-B
Fri 04:02:31 PM 42.0980 -88.6190 257° West 390 449 40,000  Level FlightAware ADS-B
Fri 04:03:07 PM 42.0860 -88.6910 257° West 390 449 40,000  Level FlightAware ADS-B
Fri 04:03:45 PM 42.0730 -88.7680 257° West 390 449 40,000  Level FlightAware ADS-B
Fri 04:04:21 PM 42.0600 -88.8400 256° West 390 449 40,000  Level FlightAware ADS-B
Fri 04:05:49 PM 42.2033 -89.3542 256° West 401 461 40,000  Level Chicago Center
Fri 04:06:51 PM 42.1981 -89.4994 267° West 392 451 40,000  Level Chicago Center
Fri 04:07:53 PM 42.1950 -89.6458 268° West 391 450 40,000  Level Chicago Center
Fri 04:08:55 PM 42.1889 -89.8186 267° West 387 445 40,000  Level Chicago Center
Fri 04:09:57 PM 42.1842 -89.9381 267° West 383 441 40,000  Level Chicago Center
Fri 04:10:59 PM 42.1786 -90.1119 268° West 389 448 40,000  Level Chicago Center
Fri 04:12:01 PM 42.1714 -90.2575 266° West 392 451 40,000  Level Chicago Center
Fri 04:13:04 PM 42.1669 -90.4036 268° West 393 452 40,000  Level Chicago Center
Fri 04:14:06 PM 42.1600 -90.5503 266° West 394 453 40,000  Level Chicago Center
Fri 04:15:08 PM 42.1531 -90.6958 266° West 392 451 40,000  Level Chicago Center
Fri 04:16:10 PM 42.1458 -90.8714 267° West 393 452 40,000  Level Chicago Center
Fri 04:17:12 PM 42.1281 -91.0139 260° West 392 451 40,000  Level Chicago Center
Fri 04:18:14 PM 42.0897 -91.1511 249° West 393 452 40,000  Level Chicago Center
Fri 04:19:16 PM 42.0497 -91.2892 249° West 396 456 40,000  Level Chicago Center
Fri 04:20:18 PM 42.0058 -91.4272 247° West 402 463 40,000  Level Chicago Center
Fri 04:21:20 PM 41.9533 -91.5956 247° West 407 468 40,000  Level Chicago Center
Fri 04:22:22 PM 41.9094 -91.7361 247° West 408 470 40,000 435 Level Chicago Center
Fri 04:23:24 PM 41.8678 -91.8733 248° West 402 463 40,900 480 Climbing Chicago Center
Fri 04:24:27 PM 41.8269 -92.0075 248° West 394 453 41,000 48 Climbing Chicago Center
Fri 04:25:29 PM 41.7897 -92.1467 250° West 398 458 41,000  Level Chicago Center
Fri 04:26:31 PM 41.7792 -92.3308 266° West 410 472 41,000  Level Chicago Center
Fri 04:27:33 PM 41.7739 -92.4822 267° West 411 473 41,000  Level Chicago Center
Fri 04:28:35 PM 41.7692 -92.6353 268° West 414 476 41,000  Level Chicago Center
Fri 04:29:26 PM 41.7647 -92.7578 267° West 411 473 41,000  Level Minneapolis Center
Fri 04:30:27 PM 41.7589 -92.9167 267° West 406 467 41,000  Level Minneapolis Center
Fri 04:31:29 PM 41.7528 -93.0600 267° West 397 457 41,000  Level Minneapolis Center
Fri 04:32:31 PM 41.7475 -93.2081 267° West 399 459 41,000  Level Minneapolis Center
Fri 04:33:33 PM 41.7400 -93.3900 267° West 408 470 41,000  Level Minneapolis Center
Fri 04:34:35 PM 41.7336 -93.5400 267° West 409 471 41,000  Level Minneapolis Center
Fri 04:35:37 PM 41.7261 -93.6886 266° West 407 468 41,000  Level Minneapolis Center
Fri 04:36:39 PM 41.7208 -93.8383 267° West 409 471 41,000  Level Minneapolis Center
Fri 04:37:41 PM 41.7136 -93.9981 267° West 410 472 41,000  Level Minneapolis Center
Fri 04:38:43 PM 41.7058 -94.1508 266° West 411 473 41,000  Level Minneapolis Center
Fri 04:39:45 PM 41.6983 -94.3031 266° West 411 473 41,000  Level Minneapolis Center
Fri 04:40:47 PM 41.6903 -94.4853 267° West 408 470 41,000  Level Minneapolis Center
Fri 04:41:49 PM 41.6814 -94.6361 266° West 407 468 41,000  Level Minneapolis Center
Fri 04:42:51 PM 41.6744 -94.7867 267° West 406 467 41,000  Level Minneapolis Center
Fri 04:43:53 PM 41.6650 -94.9347 265° West 400 460 41,000  Level Minneapolis Center
Fri 04:44:55 PM 41.6575 -95.0833 266° West 402 463 41,000  Level Minneapolis Center
Fri 04:45:57 PM 41.6492 -95.2319 266° West 402 463 41,000  Level Minneapolis Center
Fri 04:46:59 PM 41.6389 -95.4108 266° West 402 463 41,000  Level Minneapolis Center
Fri 04:48:01 PM 41.6292 -95.5594 265° West 403 464 41,000  Level Minneapolis Center
Fri 04:49:03 PM 41.6211 -95.7022 266° West 410 472 41,000  Level Minneapolis Center
Fri 04:50:05 PM 41.6119 -95.8542 265° West 410 472 41,000  Level Minneapolis Center
Fri 04:51:07 PM 41.6011 -96.0331 265° West 405 466 41,000  Level Minneapolis Center
Fri 04:52:09 PM 41.5911 -96.1831 265° West 405 466 41,000  Level Minneapolis Center
Fri 04:53:11 PM 41.5800 -96.3333 264° West 406 467 41,000  Level Minneapolis Center
Fri 04:54:13 PM 41.5700 -96.4847 265° West 409 471 41,000  Level Minneapolis Center
Fri 04:55:15 PM 41.5586 -96.6336 264° West 408 470 41,000  Level Minneapolis Center
Fri 04:56:16 PM 41.5481 -96.7811 265° West 405 466 41,000  Level Minneapolis Center
Fri 04:57:18 PM 41.5378 -96.9267 265° West 398 458 41,000  Level Minneapolis Center
Fri 04:58:20 PM 41.5242 -97.1064 264° West 405 466 41,000  Level Minneapolis Center
Fri 04:59:22 PM 41.5136 -97.2578 265° West 408 470 41,000  Level Minneapolis Center
Fri 05:00:24 PM 41.5014 -97.4069 264° West 407 468 41,000  Level Minneapolis Center
Fri 05:01:26 PM 41.4903 -97.5575 264° West 409 471 41,000  Level Minneapolis Center
Fri 05:02:28 PM 41.4789 -97.7064 264° West 407 468 41,000  Level Minneapolis Center
Fri 05:03:30 PM 41.4667 -97.8508 264° West 397 457 41,000  Level Minneapolis Center
Fri 05:04:32 PM 41.4544 -98.0183 264° West 384 442 41,000  Level Minneapolis Center
Fri 05:05:34 PM 41.4411 -98.1628 263° West 385 443 41,000  Level Minneapolis Center
Fri 05:06:35 PM 41.4286 -98.3061 263° West 389 448 41,000  Level Minneapolis Center
Fri 05:07:37 PM 41.4178 -98.4489 264° West 390 449 41,000  Level Minneapolis Center
Fri 05:08:39 PM 41.4047 -98.5961 263° West 395 455 41,000  Level Minneapolis Center
Fri 05:09:41 PM 41.3917 -98.7436 263° West 399 459 41,000  Level Minneapolis Center
Fri 05:10:43 PM 41.3772 -98.8928 263° West 403 464 41,000  Level Minneapolis Center
Fri 05:11:45 PM 41.3614 -99.0728 263° West 406 467 41,000  Level Minneapolis Center
Fri 05:12:47 PM 41.3492 -99.2156 264° West 407 468 41,000  Level Minneapolis Center
Fri 05:13:49 PM 41.3350 -99.3633 263° West 406 467 41,000  Level Minneapolis Center
Fri 05:14:50 PM 41.3214 -99.5094 263° West 402 463 41,000  Level Minneapolis Center
Fri 05:15:52 PM 41.3047 -99.6861 263° West 401 461 41,000  Level Minneapolis Center
Fri 05:16:54 PM 41.2903 -99.8336 263° West 403 464 41,000  Level Minneapolis Center
Fri 05:17:56 PM 41.2764 -99.9806 263° West 403 464 41,000  Level Minneapolis Center
Fri 05:18:59 PM 41.2614 -100.1278 262° West 402 463 41,000  Level Minneapolis Center
Fri 05:20:01 PM 41.2464 -100.2750 262° West 403 464 41,000  Level Minneapolis Center
Fri 05:21:03 PM 41.2311 -100.4217 262° West 402 463 41,000  Level Minneapolis Center
Fri 05:22:05 PM 41.2125 -100.5994 262° West 404 465 41,000  Level Minneapolis Center
Fri 05:23:26 PM 41.1914 -100.7931 262° West 401 461 41,000  Level Denver Center
Fri 05:24:28 PM 41.1761 -100.9328 262° West 403 464 41,000  Level Denver Center
Fri 05:25:30 PM 41.1575 -101.0953 261° West 403 464 41,000  Level Denver Center
Fri 05:26:32 PM 41.1419 -101.2369 262° West 407 468 41,000  Level Denver Center
Fri 05:27:34 PM 41.1236 -101.4006 262° West 404 465 41,000  Level Denver Center
Fri 05:28:36 PM 41.1075 -101.5400 261° West 402 463 41,000  Level Denver Center
Fri 05:29:38 PM 41.0892 -101.7042 262° West 404 465 41,000  Level Denver Center
Fri 05:30:40 PM 41.0725 -101.8456 261° West 406 467 41,000  Level Denver Center
Fri 05:31:42 PM 41.0525 -102.0100 261° West 405 466 41,000  Level Denver Center
Fri 05:32:43 PM 41.0358 -102.1522 261° West 406 467 41,000  Level Denver Center
Fri 05:33:45 PM 41.0186 -102.2956 261° West 412 474 41,000  Level Denver Center
Fri 05:34:47 PM 40.9981 -102.4639 261° West 416 479 41,000  Level Denver Center
Fri 05:35:49 PM 40.9806 -102.6094 261° West 418 481 41,000  Level Denver Center
Fri 05:36:51 PM 40.9600 -102.7783 261° West 416 479 41,000  Level Denver Center
Fri 05:37:53 PM 40.9419 -102.9222 261° West 414 476 41,000 -194 Level Denver Center
Fri 05:38:55 PM 40.9214 -103.0839 260° West 421 484 40,600 -339 Descending Denver Center
Fri 05:39:57 PM 40.9017 -103.2325 260° West 414 476 40,300 -290 Descending Denver Center
Fri 05:40:59 PM 40.8842 -103.3775 261° West 404 465 40,000 -145 Descending Denver Center
Fri 05:42:01 PM 40.8606 -103.5492 260° West 400 460 40,000  Level Denver Center
Fri 05:43:03 PM 40.8419 -103.6975 261° West 408 470 40,000  Level Denver Center
Fri 05:44:05 PM 40.8219 -103.8439 260° West 408 470 40,000  Level Denver Center
Fri 05:45:06 PM 40.8011 -103.9917 259° West 410 472 40,000  Level Denver Center
Fri 05:46:08 PM 40.7811 -104.1422 260° West 416 479 40,000  Level Denver Center
Fri 05:47:10 PM 40.7606 -104.2922 260° West 417 480 40,000  Level Denver Center
Fri 05:48:12 PM 40.7342 -104.4761 259° West 426 490 40,000  Level Denver Center
Fri 05:49:14 PM 40.7133 -104.6294 260° West 428 493 40,000  Level Denver Center
Fri 05:50:16 PM 40.6919 -104.7772 259° West 418 481 40,000  Level Denver Center
Fri 05:51:18 PM 40.6706 -104.9261 259° West 416 479 40,000  Level Denver Center
Fri 05:52:19 PM 40.6483 -105.0750 259° West 417 480 40,000  Level Denver Center
Fri 05:53:21 PM 40.6269 -105.2225 259° West 413 475 40,000  Level Denver Center
Fri 05:54:23 PM 40.5997 -105.4025 259° West 419 482 40,000  Level Denver Center
Fri 05:55:25 PM 40.5778 -105.5550 259° West 425 489 40,000  Level Denver Center
Fri 05:56:27 PM 40.5539 -105.7072 258° West 427 491 40,000  Level Denver Center
Fri 05:57:29 PM 40.5308 -105.8594 259° West 426 490 40,000  Level Denver Center
Fri 05:58:30 PM 40.5072 -106.0094 258° West 422 486 40,000  Level Denver Center
Fri 05:59:32 PM 40.4811 -106.1825 259° West 422 486 40,000  Level Denver Center
Fri 06:00:34 PM 40.4586 -106.3269 258° West 423 487 40,000  Level Denver Center
Fri 06:01:36 PM 40.4314 -106.4958 258° West 423 487 40,000  Level Denver Center
Fri 06:02:38 PM 40.4100 -106.6322 258° West 430 495 40,000  Level Denver Center
Fri 06:03:40 PM 40.3844 -106.7869 258° West 434 499 40,000  Level Denver Center
Fri 06:04:42 PM 40.3564 -106.9650 258° West 434 499 40,000  Level Denver Center
Fri 06:05:43 PM 40.3325 -107.1125 258° West 434 499 40,000  Level Denver Center
Fri 06:06:45 PM 40.3036 -107.2853 258° West 436 502 40,000  Level Denver Center
Fri 06:07:47 PM 40.2772 -107.4342 257° West 439 505 40,000  Level Denver Center
Fri 06:08:49 PM 40.2492 -107.6100 258° West 444 511 40,000  Level Denver Center
Fri 06:09:51 PM 40.2222 -107.7608 257° West 445 512 40,000  Level Denver Center
Fri 06:10:52 PM 40.1925 -107.9364 258° West 445 512 40,000  Level Denver Center
Fri 06:11:54 PM 40.1672 -108.0856 258° West 442 509 40,000  Level Denver Center
Fri 06:12:56 PM 40.1358 -108.2614 257° West 445 512 40,000  Level Denver Center
Fri 06:13:58 PM 40.1094 -108.4114 257° West 446 513 40,000  Level Denver Center
Fri 06:15:00 PM 40.0786 -108.5886 257° West 451 519 40,000  Level Denver Center
Fri 06:16:01 PM 40.0506 -108.7408 257° West 455 524 40,000  Level Denver Center
Fri 06:17:03 PM 40.0189 -108.9169 257° West 452 520 40,000  Level Denver Center
Fri 06:18:05 PM 39.9906 -109.0686 256° West 453 521 40,000  Level Denver Center
Fri 06:19:07 PM 39.9569 -109.2475 256° West 458 527 40,000  Level Denver Center
Fri 06:20:08 PM 39.9289 -109.3994 257° West 455 524 40,000  Level Denver Center
Fri 06:21:10 PM 39.8958 -109.5767 256° West 452 520 40,000  Level Denver Center
Fri 06:22:12 PM 39.8661 -109.7311 256° West 459 528 40,000  Level Denver Center
Fri 06:23:14 PM 39.8308 -109.9133 256° West 465 535 40,000  Level Denver Center
Fri 06:24:32 PM 39.7933 -110.1200 257° West 464 534 40,000  Level Salt Lake Center
Fri 06:25:34 PM 39.7631 -110.2742 256° West 462 532 40,000  Level Salt Lake Center
Fri 06:26:36 PM 39.7281 -110.4517 256° West 457 526 40,000  Level Salt Lake Center
Fri 06:27:37 PM 39.6983 -110.6053 256° West 458 527 40,000  Level Salt Lake Center
Fri 06:28:39 PM 39.6672 -110.7600 255° West 464 534 40,000  Level Salt Lake Center
Fri 06:29:40 PM 39.6317 -110.9392 256° West 461 531 40,000  Level Salt Lake Center
Fri 06:30:42 PM 39.6006 -111.0911 255° West 458 527 40,000  Level Salt Lake Center
Fri 06:31:44 PM 39.5633 -111.2706 255° West 462 532 40,000  Level Salt Lake Center
Fri 06:32:45 PM 39.5297 -111.4311 255° West 464 534 40,000  Level Salt Lake Center
Fri 06:33:47 PM 39.4972 -111.5919 255° West 462 532 40,000  Level Salt Lake Center
Fri 06:34:49 PM 39.4622 -111.7528 254° West 463 533 40,000  Level Salt Lake Center
Fri 06:35:50 PM 39.4286 -111.9133 255° West 462 532 40,000  Level Salt Lake Center
Fri 06:36:52 PM 39.3961 -112.0725 255° West 459 528 40,000  Level Salt Lake Center
Fri 06:37:54 PM 39.3617 -112.2336 255° West 464 534 40,000  Level Salt Lake Center
Fri 06:38:55 PM 39.3217 -112.4217 255° West 458 527 40,000  Level Salt Lake Center
Fri 06:39:57 PM 39.2872 -112.5761 254° West 451 519 40,000  Level Salt Lake Center
Fri 06:40:58 PM 39.2553 -112.7133 253° West 452 520 40,000  Level Salt Lake Center
Fri 06:42:00 PM 39.2136 -112.9031 254° West 459 528 40,000  Level Salt Lake Center
Fri 06:43:02 PM 39.1792 -113.0619 254° West 463 533 40,000  Level Salt Lake Center
Fri 06:44:03 PM 39.1428 -113.2183 253° West 460 529 40,000  Level Salt Lake Center
Fri 06:45:05 PM 39.1064 -113.3783 254° West 465 535 40,000  Level Salt Lake Center
Fri 06:50:53 PM 39.1665 -114.0801 254° West 40,000  Level FlightAware ADS-B
Fri 06:51:01 PM 39.2891 -113.9952 28° Northeast 40,000  Level FlightAware ADS-B
Fri 06:52:16 PM 38.8489 -114.4797 28° Northeast 442 509 40,000  Level Salt Lake Center
Fri 06:53:17 PM 38.8128 -114.6306 253° West 445 512 40,000  Level Salt Lake Center
Fri 06:54:19 PM 38.7758 -114.7839 253° West 450 518 40,000  Level Salt Lake Center
Fri 06:55:20 PM 38.7381 -114.9372 253° West 454 522 40,000  Level Salt Lake Center
Fri 06:56:22 PM 38.6914 -115.1239 252° West 459 528 40,000  Level Salt Lake Center
Fri 06:57:23 PM 38.6528 -115.2783 252° West 459 528 40,000  Level Salt Lake Center
Fri 06:58:25 PM 38.6144 -115.4297 252° West 455 524 40,000  Level Salt Lake Center
Fri 06:59:26 PM 38.5778 -115.5828 253° West 453 521 40,000  Level Salt Lake Center
Fri 07:00:28 PM 38.5394 -115.7344 252° West 449 517 40,000  Level Salt Lake Center
Fri 07:01:29 PM 38.5017 -115.8836 252° West 443 510 40,000  Level Salt Lake Center
Fri 07:02:31 PM 38.4628 -116.0328 252° West 442 509 40,000  Level Salt Lake Center
Fri 07:03:32 PM 38.4258 -116.1808 252° West 439 505 40,000  Level Salt Lake Center
Fri 07:04:34 PM 38.3806 -116.3542 252° West 430 495 40,000  Level Salt Lake Center
Fri 07:05:35 PM 38.3433 -116.4964 252° West 425 489 40,000  Level Salt Lake Center
Fri 07:06:37 PM 38.3056 -116.6397 251° West 427 491 40,000  Level Salt Lake Center
Fri 07:07:38 PM 38.2683 -116.7833 252° West 428 493 40,000  Level Salt Lake Center
Fri 07:08:40 PM 38.2300 -116.9272 251° West 429 494 40,000  Level Salt Lake Center
Fri 07:09:41 PM 38.1922 -117.0714 252° West 432 497 40,000  Level Salt Lake Center
Fri 07:10:43 PM 38.1561 -117.2106 252° West 431 496 40,000  Level Salt Lake Center
Fri 07:11:44 PM 38.1078 -117.3853 251° West 447 514 40,000  Level Salt Lake Center
Fri 07:12:46 PM 38.0686 -117.5311 251° West 441 507 40,000  Level Salt Lake Center
Fri 07:13:48 PM 38.0292 -117.6736 251° West 431 496 40,000  Level Salt Lake Center
Fri 07:15:03 PM 37.9997 -117.8469 258° West 422 486 40,000  Level Oakland Center
Fri 07:16:05 PM 37.9947 -117.9922 268° West 416 479 40,000  Level Oakland Center
Fri 07:17:06 PM 37.9875 -118.1656 267° West 410 472 40,000  Level Oakland Center
Fri 07:18:08 PM 37.9811 -118.3097 267° West 410 472 40,000  Level Oakland Center
Fri 07:19:09 PM 37.9761 -118.4594 268° West 420 483 40,000  Level Oakland Center
Fri 07:20:11 PM 37.9692 -118.6075 267° West 421 484 40,000  Level Oakland Center
Fri 07:21:12 PM 37.9625 -118.7558 267° West 421 484 40,000  Level Oakland Center
Fri 07:22:14 PM 37.9603 -118.9058 269° West 425 489 40,000  Level Oakland Center
Fri 07:23:15 PM 37.9522 -119.0556 266° West 424 488 40,000  Level Oakland Center
Fri 07:24:17 PM 37.9439 -119.2181 266° West 427 491 40,000  Level Oakland Center
Fri 07:25:18 PM 37.9372 -119.3686 267° West 428 493 40,000 -683 Level Oakland Center
Fri 07:26:20 PM 37.9306 -119.5208 267° West 432 497 38,600 -1,659 Descending Oakland Center
Fri 07:27:21 PM 37.9203 -119.6778 265° West 445 512 36,600 -1,951 Descending Oakland Center
Fri 07:28:23 PM 37.9117 -119.8361 266° West 449 517 34,600 -1,951 Descending Oakland Center
Fri 07:29:24 PM 37.9039 -119.9972 267° West 456 525 32,600 -2,146 Descending Oakland Center
Fri 07:30:26 PM 37.8925 -120.1958 266° West 468 539 30,200 -2,146 Descending Oakland Center
Fri 07:31:27 PM 37.8819 -120.3600 265° West 470 541 28,200 -2,049 Descending Oakland Center
Fri 07:32:29 PM 37.8733 -120.5072 266° West 439 505 26,000 -2,293 Descending Oakland Center
Fri 07:33:30 PM 37.8664 -120.6433 266° West 399 459 23,500 -2,439 Descending Oakland Center
Fri 07:34:32 PM 37.8581 -120.7775 266° West 383 441 21,000 -2,529 Descending Oakland Center
Fri 07:35:31 PM 37.8500 -120.9000 265° West 375 432 18,400 -2,521 Descending Northern Cal TRACON
Fri 07:36:31 PM 37.8333 -121.0500 262° West 368 423 16,000 -2,150 Descending Northern Cal TRACON
Fri 07:37:31 PM 37.8333 -121.1667 270° West 366 421 14,100 -2,050 Descending Northern Cal TRACON
Fri 07:38:31 PM 37.8000 -121.2833 250° West 376 433 11,900 -1,684 Descending Northern Cal TRACON
Fri 07:39:25 PM 37.7500 -121.3833 238° Southwest 332 382 10,900 -1,000 Descending Northern Cal TRACON
Fri 07:40:31 PM 37.7167 -121.4833 247° West 309 356 9,900 -905 Descending Northern Cal TRACON
Fri 07:41:31 PM 37.6833 -121.5833 247° West 301 346 9,000 -900 Descending Northern Cal TRACON
Fri 07:42:31 PM 37.6500 -121.6833 247° West 306 352 8,100 -650 Descending Northern Cal TRACON
Fri 07:43:31 PM 37.6333 -121.7833 258° West 301 346 7,700 -1,000 Descending Northern Cal TRACON
Fri 07:44:31 PM 37.6167 -121.8833 258° West 275 316 6,100 -2,000 Descending Northern Cal TRACON
Fri 07:45:31 PM 37.6500 -121.9667 297° West 273 314 3,700 -1,579 Descending Northern Cal TRACON
Fri 07:46:25 PM 37.6667 -122.0500 284° West 228 262 3,100 -900 Descending Northern Cal TRACON
Fri 07:47:31 PM 37.6833 -122.1167 288° West 187 215 1,900 -1,095 Descending Northern Cal TRACON
Fri 07:48:31 PM 37.7167 -122.1667 310° West 170 196 800 -1,100 Descending Northern Cal TRACON
Fri 07:50:00 PM 37.7167 -122.2167 270° West  Level FlightAware Approximate
Fri 07:57:00 PM 37.7213 -122.2207 270° West  Level Estimated
Fri 07:58:00 PM 37.7167 -122.2167 270° West  Level FlightAware Approximate

Login

Don't have an account? Register now (free) for customized features, flight alerts, and more!